sensor_id;sensor_type;location;lat;lon;timestamp;P1;durP1;ratioP1;P2;durP2;ratioP2
9972;SDS011;5027;53.560;10.062;2023-01-31T00:01:12;11.43;;;3.50;;
9972;SDS011;5027;53.560;10.062;2023-01-31T00:03:41;13.53;;;4.23;;
9972;SDS011;5027;53.560;10.062;2023-01-31T00:06:10;10.13;;;3.90;;
9972;SDS011;5027;53.560;10.062;2023-01-31T00:08:38;11.83;;;3.57;;
9972;SDS011;5027;53.560;10.062;2023-01-31T00:11:05;12.00;;;3.80;;
9972;SDS011;5027;53.560;10.062;2023-01-31T00:13:32;15.57;;;4.07;;
9972;SDS011;5027;53.560;10.062;2023-01-31T00:15:58;5.20;;;2.10;;
9972;SDS011;5027;53.560;10.062;2023-01-31T00:18:25;13.47;;;4.10;;
9972;SDS011;5027;53.560;10.062;2023-01-31T00:20:53;9.80;;;3.17;;
9972;SDS011;5027;53.560;10.062;2023-01-31T00:23:19;4.67;;;2.23;;
9972;SDS011;5027;53.560;10.062;2023-01-31T00:25:46;6.20;;;2.63;;
9972;SDS011;5027;53.560;10.062;2023-01-31T00:28:13;4.90;;;2.30;;
9972;SDS011;5027;53.560;10.062;2023-01-31T00:30:40;8.90;;;3.03;;
9972;SDS011;5027;53.560;10.062;2023-01-31T00:33:07;10.60;;;3.60;;
9972;SDS011;5027;53.560;10.062;2023-01-31T00:35:36;10.80;;;3.40;;
9972;SDS011;5027;53.560;10.062;2023-01-31T00:38:04;10.33;;;3.60;;
9972;SDS011;5027;53.560;10.062;2023-01-31T00:40:31;10.93;;;3.70;;
9972;SDS011;5027;53.560;10.062;2023-01-31T00:42:58;6.80;;;2.53;;
9972;SDS011;5027;53.560;10.062;2023-01-31T00:45:24;9.73;;;3.40;;
9972;SDS011;5027;53.560;10.062;2023-01-31T00:47:51;9.93;;;3.20;;
9972;SDS011;5027;53.560;10.062;2023-01-31T00:50:18;7.47;;;2.47;;
9972;SDS011;5027;53.560;10.062;2023-01-31T00:52:45;10.13;;;3.17;;
9972;SDS011;5027;53.560;10.062;2023-01-31T00:55:12;11.60;;;4.07;;
9972;SDS011;5027;53.560;10.062;2023-01-31T00:57:39;9.33;;;3.47;;
9972;SDS011;5027;53.560;10.062;2023-01-31T01:00:06;3.73;;;2.23;;
9972;SDS011;5027;53.560;10.062;2023-01-31T01:02:33;10.47;;;3.40;;
9972;SDS011;5027;53.560;10.062;2023-01-31T01:05:00;8.43;;;2.93;;
9972;SDS011;5027;53.560;10.062;2023-01-31T01:07:27;4.30;;;2.23;;
9972;SDS011;5027;53.560;10.062;2023-01-31T01:09:54;4.30;;;2.40;;
9972;SDS011;5027;53.560;10.062;2023-01-31T01:12:21;6.87;;;2.60;;
9972;SDS011;5027;53.560;10.062;2023-01-31T01:14:48;7.87;;;2.80;;
9972;SDS011;5027;53.560;10.062;2023-01-31T01:17:14;5.80;;;2.50;;
9972;SDS011;5027;53.560;10.062;2023-01-31T01:19:41;8.73;;;2.90;;
9972;SDS011;5027;53.560;10.062;2023-01-31T01:22:07;7.30;;;2.43;;
9972;SDS011;5027;53.560;10.062;2023-01-31T01:24:34;8.47;;;2.70;;
9972;SDS011;5027;53.560;10.062;2023-01-31T01:27:01;6.50;;;2.47;;
9972;SDS011;5027;53.560;10.062;2023-01-31T01:29:30;6.63;;;2.57;;
9972;SDS011;5027;53.560;10.062;2023-01-31T01:31:56;9.67;;;2.63;;
9972;SDS011;5027;53.560;10.062;2023-01-31T01:34:23;13.83;;;3.33;;
9972;SDS011;5027;53.560;10.062;2023-01-31T01:36:50;7.60;;;3.07;;
9972;SDS011;5027;53.560;10.062;2023-01-31T01:39:17;11.63;;;3.43;;
9972;SDS011;5027;53.560;10.062;2023-01-31T01:41:44;8.13;;;2.70;;
9972;SDS011;5027;53.560;10.062;2023-01-31T01:47:14;9.00;;;2.87;;
9972;SDS011;5027;53.560;10.062;2023-01-31T01:49:48;12.30;;;3.30;;
9972;SDS011;5027;53.560;10.062;2023-01-31T01:52:19;9.70;;;3.20;;
9972;SDS011;5027;53.560;10.062;2023-01-31T01:54:49;13.03;;;3.50;;
9972;SDS011;5027;53.560;10.062;2023-01-31T01:57:30;9.40;;;3.53;;
9972;SDS011;5027;53.560;10.062;2023-01-31T02:00:23;16.97;;;4.23;;
9972;SDS011;5027;53.560;10.062;2023-01-31T02:02:51;19.50;;;4.60;;
9972;SDS011;5027;53.560;10.062;2023-01-31T02:05:27;17.47;;;4.53;;
9972;SDS011;5027;53.560;10.062;2023-01-31T02:07:58;15.30;;;4.10;;
9972;SDS011;5027;53.560;10.062;2023-01-31T02:10:35;15.13;;;3.90;;
9972;SDS011;5027;53.560;10.062;2023-01-31T02:13:09;15.77;;;4.50;;
9972;SDS011;5027;53.560;10.062;2023-01-31T02:15:36;18.97;;;4.07;;
9972;SDS011;5027;53.560;10.062;2023-01-31T02:18:05;17.90;;;4.67;;
9972;SDS011;5027;53.560;10.062;2023-01-31T02:24:03;16.00;;;4.30;;
9972;SDS011;5027;53.560;10.062;2023-01-31T02:32:30;16.23;;;4.17;;
9972;SDS011;5027;53.560;10.062;2023-01-31T02:41:14;14.47;;;3.90;;
9972;SDS011;5027;53.560;10.062;2023-01-31T02:47:05;16.67;;;4.00;;
9972;SDS011;5027;53.560;10.062;2023-01-31T02:49:50;15.03;;;3.97;;
9972;SDS011;5027;53.560;10.062;2023-01-31T02:55:31;11.57;;;4.10;;
9972;SDS011;5027;53.560;10.062;2023-01-31T02:58:26;12.53;;;3.80;;
9972;SDS011;5027;53.560;10.062;2023-01-31T03:00:56;13.67;;;3.77;;
9972;SDS011;5027;53.560;10.062;2023-01-31T03:03:29;12.53;;;3.67;;
9972;SDS011;5027;53.560;10.062;2023-01-31T03:06:09;13.73;;;3.57;;
9972;SDS011;5027;53.560;10.062;2023-01-31T03:08:38;13.47;;;3.80;;
9972;SDS011;5027;53.560;10.062;2023-01-31T03:11:17;18.53;;;3.83;;
9972;SDS011;5027;53.560;10.062;2023-01-31T03:16:31;10.77;;;3.47;;
9972;SDS011;5027;53.560;10.062;2023-01-31T03:19:35;9.47;;;2.50;;
9972;SDS011;5027;53.560;10.062;2023-01-31T03:22:17;12.07;;;3.03;;
9972;SDS011;5027;53.560;10.062;2023-01-31T03:24:54;9.17;;;2.90;;
9972;SDS011;5027;53.560;10.062;2023-01-31T03:27:22;11.77;;;3.10;;
9972;SDS011;5027;53.560;10.062;2023-01-31T03:29:52;11.97;;;3.30;;
9972;SDS011;5027;53.560;10.062;2023-01-31T03:32:27;9.20;;;3.40;;
9972;SDS011;5027;53.560;10.062;2023-01-31T03:35:00;12.90;;;3.20;;
9972;SDS011;5027;53.560;10.062;2023-01-31T03:37:39;9.03;;;3.20;;
9972;SDS011;5027;53.560;10.062;2023-01-31T03:40:29;12.97;;;3.27;;
9972;SDS011;5027;53.560;10.062;2023-01-31T03:45:41;13.33;;;4.10;;
9972;SDS011;5027;53.560;10.062;2023-01-31T03:48:12;15.53;;;3.93;;
9972;SDS011;5027;53.560;10.062;2023-01-31T03:50:46;16.27;;;3.70;;
9972;SDS011;5027;53.560;10.062;2023-01-31T03:53:29;15.87;;;3.87;;
9972;SDS011;5027;53.560;10.062;2023-01-31T03:56:03;10.90;;;3.10;;
9972;SDS011;5027;53.560;10.062;2023-01-31T03:58:35;10.00;;;3.70;;
9972;SDS011;5027;53.560;10.062;2023-01-31T04:01:05;14.10;;;4.07;;
9972;SDS011;5027;53.560;10.062;2023-01-31T04:03:38;11.03;;;3.67;;
9972;SDS011;5027;53.560;10.062;2023-01-31T04:06:09;18.63;;;4.07;;
9972;SDS011;5027;53.560;10.062;2023-01-31T04:08:37;14.90;;;4.30;;
9972;SDS011;5027;53.560;10.062;2023-01-31T04:11:08;14.40;;;4.00;;
9972;SDS011;5027;53.560;10.062;2023-01-31T04:13:38;13.30;;;3.80;;
9972;SDS011;5027;53.560;10.062;2023-01-31T04:16:05;18.03;;;4.80;;
9972;SDS011;5027;53.560;10.062;2023-01-31T04:18:32;15.23;;;4.70;;
9972;SDS011;5027;53.560;10.062;2023-01-31T04:21:03;21.53;;;4.53;;
9972;SDS011;5027;53.560;10.062;2023-01-31T04:23:29;15.50;;;4.47;;
9972;SDS011;5027;53.560;10.062;2023-01-31T04:25:56;19.13;;;4.30;;
9972;SDS011;5027;53.560;10.062;2023-01-31T04:28:23;18.00;;;4.53;;
9972;SDS011;5027;53.560;10.062;2023-01-31T04:30:53;19.03;;;5.00;;
9972;SDS011;5027;53.560;10.062;2023-01-31T04:33:20;21.60;;;4.27;;
9972;SDS011;5027;53.560;10.062;2023-01-31T04:35:49;17.40;;;4.67;;
9972;SDS011;5027;53.560;10.062;2023-01-31T04:38:16;18.63;;;4.27;;
9972;SDS011;5027;53.560;10.062;2023-01-31T04:40:43;17.77;;;4.50;;
9972;SDS011;5027;53.560;10.062;2023-01-31T04:43:10;22.00;;;5.00;;
9972;SDS011;5027;53.560;10.062;2023-01-31T04:45:37;16.37;;;4.60;;
9972;SDS011;5027;53.560;10.062;2023-01-31T04:48:04;14.93;;;4.23;;
9972;SDS011;5027;53.560;10.062;2023-01-31T04:50:31;19.83;;;4.57;;
9972;SDS011;5027;53.560;10.062;2023-01-31T04:52:58;17.90;;;4.77;;
9972;SDS011;5027;53.560;10.062;2023-01-31T04:55:24;16.03;;;5.00;;
9972;SDS011;5027;53.560;10.062;2023-01-31T04:57:52;14.93;;;3.67;;
9972;SDS011;5027;53.560;10.062;2023-01-31T05:00:19;16.03;;;4.77;;
9972;SDS011;5027;53.560;10.062;2023-01-31T05:02:46;14.70;;;4.20;;
9972;SDS011;5027;53.560;10.062;2023-01-31T05:05:13;13.87;;;4.10;;
9972;SDS011;5027;53.560;10.062;2023-01-31T05:07:39;14.60;;;4.20;;
9972;SDS011;5027;53.560;10.062;2023-01-31T05:10:06;14.80;;;3.93;;
9972;SDS011;5027;53.560;10.062;2023-01-31T05:12:33;13.40;;;3.87;;
9972;SDS011;5027;53.560;10.062;2023-01-31T05:15:00;17.00;;;4.00;;
9972;SDS011;5027;53.560;10.062;2023-01-31T05:17:27;15.50;;;3.87;;
9972;SDS011;5027;53.560;10.062;2023-01-31T05:19:55;13.27;;;4.33;;
9972;SDS011;5027;53.560;10.062;2023-01-31T05:22:22;15.00;;;4.23;;
9972;SDS011;5027;53.560;10.062;2023-01-31T05:24:49;16.00;;;4.17;;
9972;SDS011;5027;53.560;10.062;2023-01-31T05:27:16;12.53;;;3.83;;
9972;SDS011;5027;53.560;10.062;2023-01-31T05:29:44;15.80;;;4.53;;
9972;SDS011;5027;53.560;10.062;2023-01-31T05:32:11;10.20;;;3.20;;
9972;SDS011;5027;53.560;10.062;2023-01-31T05:34:39;16.30;;;4.17;;
9972;SDS011;5027;53.560;10.062;2023-01-31T05:37:06;12.37;;;3.27;;
9972;SDS011;5027;53.560;10.062;2023-01-31T05:39:32;18.83;;;4.93;;
9972;SDS011;5027;53.560;10.062;2023-01-31T05:41:59;17.73;;;4.63;;
9972;SDS011;5027;53.560;10.062;2023-01-31T05:44:27;21.47;;;4.63;;
9972;SDS011;5027;53.560;10.062;2023-01-31T05:46:53;17.10;;;4.73;;
9972;SDS011;5027;53.560;10.062;2023-01-31T05:49:20;14.43;;;4.07;;
9972;SDS011;5027;53.560;10.062;2023-01-31T05:51:47;19.83;;;4.67;;
9972;SDS011;5027;53.560;10.062;2023-01-31T05:54:13;19.73;;;4.50;;
9972;SDS011;5027;53.560;10.062;2023-01-31T05:56:40;13.87;;;3.50;;
9972;SDS011;5027;53.560;10.062;2023-01-31T05:59:06;13.00;;;4.63;;
9972;SDS011;5027;53.560;10.062;2023-01-31T06:01:33;13.83;;;3.60;;
9972;SDS011;5027;53.560;10.062;2023-01-31T06:04:00;20.40;;;4.93;;
9972;SDS011;5027;53.560;10.062;2023-01-31T06:06:27;20.57;;;4.50;;
9972;SDS011;5027;53.560;10.062;2023-01-31T06:08:53;18.10;;;4.77;;
9972;SDS011;5027;53.560;10.062;2023-01-31T06:11:20;20.23;;;4.93;;
9972;SDS011;5027;53.560;10.062;2023-01-31T06:13:47;22.17;;;4.57;;
9972;SDS011;5027;53.560;10.062;2023-01-31T06:16:14;16.97;;;4.63;;
9972;SDS011;5027;53.560;10.062;2023-01-31T06:18:41;22.43;;;4.87;;
9972;SDS011;5027;53.560;10.062;2023-01-31T06:21:08;28.40;;;4.97;;
9972;SDS011;5027;53.560;10.062;2023-01-31T06:23:37;23.83;;;5.27;;
9972;SDS011;5027;53.560;10.062;2023-01-31T06:26:04;16.87;;;4.40;;
9972;SDS011;5027;53.560;10.062;2023-01-31T06:28:30;21.57;;;4.77;;
9972;SDS011;5027;53.560;10.062;2023-01-31T06:30:57;19.50;;;5.27;;
9972;SDS011;5027;53.560;10.062;2023-01-31T06:33:24;24.13;;;5.90;;
9972;SDS011;5027;53.560;10.062;2023-01-31T06:36:10;19.17;;;4.83;;
9972;SDS011;5027;53.560;10.062;2023-01-31T06:38:37;20.00;;;5.50;;
9972;SDS011;5027;53.560;10.062;2023-01-31T06:41:04;24.50;;;5.17;;
9972;SDS011;5027;53.560;10.062;2023-01-31T06:43:30;24.77;;;5.93;;
9972;SDS011;5027;53.560;10.062;2023-01-31T06:45:58;21.43;;;4.80;;
9972;SDS011;5027;53.560;10.062;2023-01-31T06:48:24;19.97;;;5.23;;
9972;SDS011;5027;53.560;10.062;2023-01-31T06:50:51;19.73;;;4.47;;
9972;SDS011;5027;53.560;10.062;2023-01-31T06:53:18;19.50;;;5.07;;
9972;SDS011;5027;53.560;10.062;2023-01-31T06:55:44;18.70;;;5.07;;
9972;SDS011;5027;53.560;10.062;2023-01-31T06:58:11;23.10;;;5.33;;
9972;SDS011;5027;53.560;10.062;2023-01-31T07:00:37;16.90;;;4.97;;
9972;SDS011;5027;53.560;10.062;2023-01-31T07:03:04;18.27;;;4.67;;
9972;SDS011;5027;53.560;10.062;2023-01-31T07:05:31;16.53;;;4.33;;
9972;SDS011;5027;53.560;10.062;2023-01-31T07:07:57;17.10;;;5.37;;
9972;SDS011;5027;53.560;10.062;2023-01-31T07:10:24;19.63;;;4.90;;
9972;SDS011;5027;53.560;10.062;2023-01-31T07:12:51;19.30;;;4.90;;
9972;SDS011;5027;53.560;10.062;2023-01-31T07:15:17;18.90;;;4.90;;
9972;SDS011;5027;53.560;10.062;2023-01-31T07:17:44;16.73;;;4.30;;
9972;SDS011;5027;53.560;10.062;2023-01-31T07:20:11;25.23;;;8.60;;
9972;SDS011;5027;53.560;10.062;2023-01-31T07:22:39;20.53;;;5.03;;
9972;SDS011;5027;53.560;10.062;2023-01-31T07:25:05;15.63;;;4.10;;
9972;SDS011;5027;53.560;10.062;2023-01-31T07:27:32;14.33;;;4.27;;
9972;SDS011;5027;53.560;10.062;2023-01-31T07:29:59;16.43;;;4.30;;
9972;SDS011;5027;53.560;10.062;2023-01-31T07:32:29;39.23;;;13.13;;
9972;SDS011;5027;53.560;10.062;2023-01-31T07:34:56;16.73;;;4.43;;
9972;SDS011;5027;53.560;10.062;2023-01-31T07:37:23;22.63;;;5.03;;
9972;SDS011;5027;53.560;10.062;2023-01-31T07:39:49;15.27;;;4.07;;
9972;SDS011;5027;53.560;10.062;2023-01-31T07:42:16;17.93;;;4.93;;
9972;SDS011;5027;53.560;10.062;2023-01-31T07:44:43;19.60;;;4.80;;
9972;SDS011;5027;53.560;10.062;2023-01-31T07:47:10;16.67;;;5.27;;
9972;SDS011;5027;53.560;10.062;2023-01-31T07:49:39;19.43;;;5.20;;
9972;SDS011;5027;53.560;10.062;2023-01-31T07:52:09;15.77;;;4.93;;
9972;SDS011;5027;53.560;10.062;2023-01-31T07:54:36;16.57;;;5.10;;
9972;SDS011;5027;53.560;10.062;2023-01-31T07:57:02;16.40;;;5.13;;
9972;SDS011;5027;53.560;10.062;2023-01-31T07:59:31;18.03;;;5.40;;
9972;SDS011;5027;53.560;10.062;2023-01-31T08:01:58;17.23;;;5.47;;
9972;SDS011;5027;53.560;10.062;2023-01-31T08:04:44;19.30;;;5.50;;
9972;SDS011;5027;53.560;10.062;2023-01-31T08:07:11;17.40;;;5.40;;
9972;SDS011;5027;53.560;10.062;2023-01-31T08:09:37;10.37;;;3.43;;
9972;SDS011;5027;53.560;10.062;2023-01-31T08:12:05;17.33;;;5.87;;
9972;SDS011;5027;53.560;10.062;2023-01-31T08:14:33;20.70;;;6.10;;
9972;SDS011;5027;53.560;10.062;2023-01-31T08:17:03;18.03;;;5.77;;
9972;SDS011;5027;53.560;10.062;2023-01-31T08:19:30;17.70;;;6.67;;
9972;SDS011;5027;53.560;10.062;2023-01-31T08:21:57;21.13;;;6.70;;
9972;SDS011;5027;53.560;10.062;2023-01-31T08:24:23;21.03;;;6.30;;
9972;SDS011;5027;53.560;10.062;2023-01-31T08:26:50;26.90;;;6.57;;
9972;SDS011;5027;53.560;10.062;2023-01-31T08:29:17;20.57;;;6.27;;
9972;SDS011;5027;53.560;10.062;2023-01-31T08:31:44;19.07;;;5.67;;
9972;SDS011;5027;53.560;10.062;2023-01-31T08:34:11;18.97;;;5.33;;
9972;SDS011;5027;53.560;10.062;2023-01-31T08:36:38;21.70;;;6.60;;
9972;SDS011;5027;53.560;10.062;2023-01-31T08:39:04;15.60;;;5.33;;
9972;SDS011;5027;53.560;10.062;2023-01-31T08:41:32;15.73;;;4.73;;
9972;SDS011;5027;53.560;10.062;2023-01-31T08:44:00;18.83;;;5.63;;
9972;SDS011;5027;53.560;10.062;2023-01-31T08:46:31;21.33;;;5.77;;
9972;SDS011;5027;53.560;10.062;2023-01-31T08:48:59;17.13;;;5.60;;
9972;SDS011;5027;53.560;10.062;2023-01-31T08:51:27;18.13;;;5.40;;
9972;SDS011;5027;53.560;10.062;2023-01-31T08:53:54;25.13;;;6.50;;
9972;SDS011;5027;53.560;10.062;2023-01-31T08:56:21;21.80;;;6.17;;
9972;SDS011;5027;53.560;10.062;2023-01-31T08:58:51;16.57;;;5.93;;
9972;SDS011;5027;53.560;10.062;2023-01-31T09:01:19;16.83;;;5.80;;
9972;SDS011;5027;53.560;10.062;2023-01-31T09:03:47;13.47;;;5.47;;
9972;SDS011;5027;53.560;10.062;2023-01-31T09:06:17;12.87;;;3.77;;
9972;SDS011;5027;53.560;10.062;2023-01-31T09:08:45;18.93;;;5.77;;
9972;SDS011;5027;53.560;10.062;2023-01-31T09:11:13;23.83;;;6.07;;
9972;SDS011;5027;53.560;10.062;2023-01-31T09:13:45;18.20;;;5.90;;
9972;SDS011;5027;53.560;10.062;2023-01-31T09:16:16;17.33;;;5.23;;
9972;SDS011;5027;53.560;10.062;2023-01-31T09:18:44;16.37;;;5.50;;
9972;SDS011;5027;53.560;10.062;2023-01-31T09:23:39;22.17;;;6.23;;
9972;SDS011;5027;53.560;10.062;2023-01-31T09:26:08;19.70;;;5.53;;
9972;SDS011;5027;53.560;10.062;2023-01-31T09:28:36;20.27;;;5.67;;
9972;SDS011;5027;53.560;10.062;2023-01-31T09:31:04;11.27;;;3.80;;
9972;SDS011;5027;53.560;10.062;2023-01-31T09:33:34;17.40;;;5.97;;
9972;SDS011;5027;53.560;10.062;2023-01-31T09:36:02;7.83;;;2.73;;
9972;SDS011;5027;53.560;10.062;2023-01-31T09:38:33;18.87;;;5.53;;
9972;SDS011;5027;53.560;10.062;2023-01-31T09:41:05;16.80;;;5.60;;
9972;SDS011;5027;53.560;10.062;2023-01-31T09:43:57;16.43;;;5.30;;
9972;SDS011;5027;53.560;10.062;2023-01-31T09:46:27;14.00;;;5.30;;
9972;SDS011;5027;53.560;10.062;2023-01-31T09:49:00;13.97;;;4.50;;
9972;SDS011;5027;53.560;10.062;2023-01-31T09:51:32;11.40;;;4.90;;
9972;SDS011;5027;53.560;10.062;2023-01-31T09:54:00;13.90;;;5.27;;
9972;SDS011;5027;53.560;10.062;2023-01-31T09:56:38;11.90;;;4.93;;
9972;SDS011;5027;53.560;10.062;2023-01-31T09:59:19;14.67;;;5.60;;
9972;SDS011;5027;53.560;10.062;2023-01-31T10:01:58;12.87;;;4.40;;
9972;SDS011;5027;53.560;10.062;2023-01-31T10:04:54;14.07;;;5.00;;
9972;SDS011;5027;53.560;10.062;2023-01-31T10:12:56;11.53;;;4.70;;
9972;SDS011;5027;53.560;10.062;2023-01-31T10:15:34;11.73;;;5.10;;
9972;SDS011;5027;53.560;10.062;2023-01-31T10:18:21;15.97;;;5.50;;
9972;SDS011;5027;53.560;10.062;2023-01-31T10:21:05;10.83;;;4.93;;
9972;SDS011;5027;53.560;10.062;2023-01-31T10:26:21;12.90;;;3.77;;
9972;SDS011;5027;53.560;10.062;2023-01-31T10:28:54;12.03;;;5.13;;
9972;SDS011;5027;53.560;10.062;2023-01-31T10:31:40;11.73;;;5.13;;
9972;SDS011;5027;53.560;10.062;2023-01-31T10:34:22;11.47;;;4.97;;
9972;SDS011;5027;53.560;10.062;2023-01-31T10:36:56;9.50;;;4.67;;
9972;SDS011;5027;53.560;10.062;2023-01-31T10:39:28;12.27;;;5.30;;
9972;SDS011;5027;53.560;10.062;2023-01-31T10:42:11;11.30;;;5.07;;
9972;SDS011;5027;53.560;10.062;2023-01-31T10:47:33;11.63;;;5.27;;
9972;SDS011;5027;53.560;10.062;2023-01-31T10:50:30;14.00;;;5.30;;
9972;SDS011;5027;53.560;10.062;2023-01-31T10:53:26;6.10;;;3.73;;
9972;SDS011;5027;53.560;10.062;2023-01-31T10:56:26;10.00;;;5.03;;
9972;SDS011;5027;53.560;10.062;2023-01-31T10:58:58;12.57;;;4.77;;
9972;SDS011;5027;53.560;10.062;2023-01-31T11:01:27;14.27;;;6.13;;
9972;SDS011;5027;53.560;10.062;2023-01-31T11:03:54;10.23;;;5.17;;
9972;SDS011;5027;53.560;10.062;2023-01-31T11:06:22;16.53;;;6.07;;
9972;SDS011;5027;53.560;10.062;2023-01-31T11:08:54;14.13;;;5.10;;
9972;SDS011;5027;53.560;10.062;2023-01-31T11:11:24;11.60;;;4.63;;
9972;SDS011;5027;53.560;10.062;2023-01-31T11:16:30;11.87;;;4.57;;
9972;SDS011;5027;53.560;10.062;2023-01-31T11:19:25;8.30;;;3.93;;
9972;SDS011;5027;53.560;10.062;2023-01-31T11:21:58;5.03;;;2.43;;
9972;SDS011;5027;53.560;10.062;2023-01-31T11:24:29;12.00;;;4.73;;
9972;SDS011;5027;53.560;10.062;2023-01-31T11:27:03;11.57;;;5.10;;
9972;SDS011;5027;53.560;10.062;2023-01-31T11:29:33;5.23;;;2.23;;
9972;SDS011;5027;53.560;10.062;2023-01-31T11:32:11;10.10;;;4.27;;
9972;SDS011;5027;53.560;10.062;2023-01-31T11:34:54;4.77;;;2.77;;
9972;SDS011;5027;53.560;10.062;2023-01-31T11:37:26;8.80;;;4.47;;
9972;SDS011;5027;53.560;10.062;2023-01-31T11:39:55;6.07;;;3.00;;
9972;SDS011;5027;53.560;10.062;2023-01-31T11:42:26;7.70;;;3.73;;
9972;SDS011;5027;53.560;10.062;2023-01-31T11:44:57;6.27;;;3.03;;
9972;SDS011;5027;53.560;10.062;2023-01-31T11:47:37;8.07;;;3.90;;
9972;SDS011;5027;53.560;10.062;2023-01-31T11:52:59;7.80;;;3.63;;
9972;SDS011;5027;53.560;10.062;2023-01-31T11:55:35;7.47;;;3.47;;
9972;SDS011;5027;53.560;10.062;2023-01-31T11:58:06;6.10;;;3.33;;
9972;SDS011;5027;53.560;10.062;2023-01-31T12:00:50;9.23;;;3.53;;
9972;SDS011;5027;53.560;10.062;2023-01-31T12:03:26;4.90;;;3.20;;
9972;SDS011;5027;53.560;10.062;2023-01-31T12:06:04;7.90;;;3.67;;
9972;SDS011;5027;53.560;10.062;2023-01-31T12:08:40;6.43;;;3.77;;
9972;SDS011;5027;53.560;10.062;2023-01-31T12:16:13;6.53;;;3.40;;
9972;SDS011;5027;53.560;10.062;2023-01-31T12:21:25;6.37;;;3.50;;
9972;SDS011;5027;53.560;10.062;2023-01-31T12:24:10;7.77;;;3.40;;
9972;SDS011;5027;53.560;10.062;2023-01-31T12:27:10;9.10;;;3.43;;
9972;SDS011;5027;53.560;10.062;2023-01-31T12:30:20;3.60;;;2.03;;
9972;SDS011;5027;53.560;10.062;2023-01-31T12:32:56;4.33;;;2.47;;
9972;SDS011;5027;53.560;10.062;2023-01-31T12:35:41;5.77;;;2.87;;
9972;SDS011;5027;53.560;10.062;2023-01-31T12:41:15;4.73;;;2.30;;
9972;SDS011;5027;53.560;10.062;2023-01-31T12:52:27;4.23;;;2.30;;
9972;SDS011;5027;53.560;10.062;2023-01-31T12:55:16;3.53;;;2.23;;
9972;SDS011;5027;53.560;10.062;2023-01-31T12:57:52;3.17;;;1.87;;
9972;SDS011;5027;53.560;10.062;2023-01-31T13:06:14;3.30;;;1.90;;
9972;SDS011;5027;53.560;10.062;2023-01-31T13:08:50;4.57;;;2.17;;
9972;SDS011;5027;53.560;10.062;2023-01-31T13:11:35;3.50;;;1.87;;
9972;SDS011;5027;53.560;10.062;2023-01-31T13:14:09;3.67;;;1.90;;
9972;SDS011;5027;53.560;10.062;2023-01-31T13:16:40;4.30;;;1.83;;
9972;SDS011;5027;53.560;10.062;2023-01-31T13:21:52;2.90;;;1.80;;
9972;SDS011;5027;53.560;10.062;2023-01-31T13:24:27;2.60;;;1.50;;
9972;SDS011;5027;53.560;10.062;2023-01-31T13:27:10;2.90;;;1.70;;
9972;SDS011;5027;53.560;10.062;2023-01-31T13:29:43;2.73;;;2.00;;
9972;SDS011;5027;53.560;10.062;2023-01-31T13:32:20;4.77;;;2.00;;
9972;SDS011;5027;53.560;10.062;2023-01-31T13:37:38;3.40;;;1.83;;
9972;SDS011;5027;53.560;10.062;2023-01-31T13:42:44;5.10;;;2.00;;
9972;SDS011;5027;53.560;10.062;2023-01-31T13:45:19;5.40;;;2.40;;
9972;SDS011;5027;53.560;10.062;2023-01-31T13:47:50;4.00;;;2.10;;
9972;SDS011;5027;53.560;10.062;2023-01-31T13:50:34;9.27;;;2.97;;
9972;SDS011;5027;53.560;10.062;2023-01-31T13:53:21;5.40;;;2.10;;
9972;SDS011;5027;53.560;10.062;2023-01-31T13:55:52;3.63;;;1.77;;
9972;SDS011;5027;53.560;10.062;2023-01-31T13:58:29;3.50;;;1.60;;
9972;SDS011;5027;53.560;10.062;2023-01-31T14:12:39;7.10;;;2.23;;
9972;SDS011;5027;53.560;10.062;2023-01-31T14:14:46;7.33;;;2.40;;
9972;SDS011;5027;53.560;10.062;2023-01-31T14:27:19;5.00;;;2.50;;
9972;SDS011;5027;53.560;10.062;2023-01-31T14:32:35;6.33;;;2.20;;
9972;SDS011;5027;53.560;10.062;2023-01-31T14:37:54;9.03;;;3.27;;
9972;SDS011;5027;53.560;10.062;2023-01-31T14:40:53;14.40;;;3.77;;
9972;SDS011;5027;53.560;10.062;2023-01-31T14:46:38;7.37;;;3.17;;
9972;SDS011;5027;53.560;10.062;2023-01-31T14:52:34;9.57;;;3.40;;
9972;SDS011;5027;53.560;10.062;2023-01-31T14:58:14;11.10;;;3.60;;
9972;SDS011;5027;53.560;10.062;2023-01-31T15:00:49;13.80;;;3.50;;
9972;SDS011;5027;53.560;10.062;2023-01-31T15:03:21;13.40;;;3.43;;
9972;SDS011;5027;53.560;10.062;2023-01-31T15:06:12;12.80;;;4.13;;
9972;SDS011;5027;53.560;10.062;2023-01-31T15:08:44;8.60;;;4.03;;
9972;SDS011;5027;53.560;10.062;2023-01-31T15:11:13;13.00;;;4.07;;
9972;SDS011;5027;53.560;10.062;2023-01-31T15:17:16;9.77;;;3.27;;
9972;SDS011;5027;53.560;10.062;2023-01-31T15:20:18;9.90;;;3.07;;
9972;SDS011;5027;53.560;10.062;2023-01-31T15:22:48;9.63;;;3.30;;
9972;SDS011;5027;53.560;10.062;2023-01-31T15:25:20;10.40;;;3.67;;
9972;SDS011;5027;53.560;10.062;2023-01-31T15:27:51;17.23;;;4.40;;
9972;SDS011;5027;53.560;10.062;2023-01-31T15:30:21;13.03;;;3.63;;
9972;SDS011;5027;53.560;10.062;2023-01-31T15:32:54;3.53;;;2.00;;
9972;SDS011;5027;53.560;10.062;2023-01-31T15:35:48;20.53;;;4.40;;
9972;SDS011;5027;53.560;10.062;2023-01-31T15:41:16;2.93;;;1.50;;
9972;SDS011;5027;53.560;10.062;2023-01-31T15:43:46;13.87;;;4.50;;
9972;SDS011;5027;53.560;10.062;2023-01-31T15:48:46;4.63;;;2.20;;
9972;SDS011;5027;53.560;10.062;2023-01-31T15:51:14;7.97;;;2.43;;
9972;SDS011;5027;53.560;10.062;2023-01-31T15:53:42;10.33;;;2.90;;
9972;SDS011;5027;53.560;10.062;2023-01-31T15:56:21;3.10;;;1.60;;
9972;SDS011;5027;53.560;10.062;2023-01-31T15:58:50;9.93;;;3.37;;
9972;SDS011;5027;53.560;10.062;2023-01-31T16:01:19;2.93;;;1.70;;
9972;SDS011;5027;53.560;10.062;2023-01-31T16:03:53;22.47;;;6.17;;
9972;SDS011;5027;53.560;10.062;2023-01-31T16:06:29;23.93;;;5.77;;
9972;SDS011;5027;53.560;10.062;2023-01-31T16:09:00;17.90;;;4.57;;
9972;SDS011;5027;53.560;10.062;2023-01-31T16:11:29;20.80;;;5.70;;
9972;SDS011;5027;53.560;10.062;2023-01-31T16:14:00;21.20;;;5.90;;
9972;SDS011;5027;53.560;10.062;2023-01-31T16:16:28;6.20;;;2.10;;
9972;SDS011;5027;53.560;10.062;2023-01-31T16:18:56;14.50;;;3.77;;
9972;SDS011;5027;53.560;10.062;2023-01-31T16:21:35;5.90;;;2.27;;
9972;SDS011;5027;53.560;10.062;2023-01-31T16:24:15;4.70;;;1.90;;
9972;SDS011;5027;53.560;10.062;2023-01-31T16:27:04;3.83;;;2.20;;
9972;SDS011;5027;53.560;10.062;2023-01-31T16:29:38;3.77;;;2.07;;
9972;SDS011;5027;53.560;10.062;2023-01-31T16:32:21;6.33;;;2.40;;
9972;SDS011;5027;53.560;10.062;2023-01-31T16:34:54;4.70;;;1.93;;
9972;SDS011;5027;53.560;10.062;2023-01-31T16:37:30;7.83;;;2.90;;
9972;SDS011;5027;53.560;10.062;2023-01-31T16:43:15;8.27;;;2.97;;
9972;SDS011;5027;53.560;10.062;2023-01-31T16:45:59;4.17;;;2.00;;
9972;SDS011;5027;53.560;10.062;2023-01-31T16:48:35;7.50;;;2.67;;
9972;SDS011;5027;53.560;10.062;2023-01-31T17:00:05;9.20;;;3.03;;
9972;SDS011;5027;53.560;10.062;2023-01-31T17:02:53;4.03;;;2.07;;
9972;SDS011;5027;53.560;10.062;2023-01-31T17:05:28;3.53;;;1.77;;
9972;SDS011;5027;53.560;10.062;2023-01-31T17:08:11;16.23;;;4.73;;
9972;SDS011;5027;53.560;10.062;2023-01-31T17:10:43;10.33;;;3.47;;
9972;SDS011;5027;53.560;10.062;2023-01-31T17:13:18;14.07;;;4.70;;
9972;SDS011;5027;53.560;10.062;2023-01-31T17:15:48;9.83;;;3.37;;
9972;SDS011;5027;53.560;10.062;2023-01-31T17:18:15;9.97;;;3.53;;
9972;SDS011;5027;53.560;10.062;2023-01-31T17:20:45;17.53;;;5.50;;
9972;SDS011;5027;53.560;10.062;2023-01-31T17:23:16;8.10;;;3.20;;
9972;SDS011;5027;53.560;10.062;2023-01-31T17:25:43;10.60;;;3.73;;
9972;SDS011;5027;53.560;10.062;2023-01-31T17:28:10;17.63;;;4.97;;
9972;SDS011;5027;53.560;10.062;2023-01-31T17:30:37;5.43;;;2.50;;
9972;SDS011;5027;53.560;10.062;2023-01-31T17:33:07;4.63;;;2.00;;
9972;SDS011;5027;53.560;10.062;2023-01-31T17:35:39;22.70;;;6.67;;
9972;SDS011;5027;53.560;10.062;2023-01-31T17:38:07;6.03;;;2.57;;
9972;SDS011;5027;53.560;10.062;2023-01-31T17:40:34;6.40;;;2.43;;